Pocono Lake, Pennsylvania
Current Conditions -  °F | °C
As of 1:53 PM on Thursday 30 Oct 2014 (Local Time) from KMPO Reporting Station
Overcast Overcast  
Wind Chill:   Ceiling: 2800
Heat Index:   Visibility: 10mi
Dew Point:   Wind: 12mph
Humidity: 60%   Direction: 340°NNW
Pressure: 29.99"   Gusts: NA
Location:  41.09°N, 75.58°W
Report Text: KMPO 301753Z AUTO 34010KT 10SM OVC028 07/00 A2999 RMK AO2 SLP167 T00720000 10078 20011 58002 $
Loading
Personal Weather Stations






























Interactive Weather Map
Tropical Storm Tracking
New forecast layout! Learn more

10-Day Weather Forecast

Advertisements
Track Severe Weather on mobile